createdAt,value
2022-08-05T00:04:56.800Z,100.00
2022-08-05T00:09:58.317Z,99.99
2022-08-05T00:15:00.304Z,100.00
2022-08-05T00:20:21.807Z,100.00
2022-08-05T00:25:23.323Z,100.00
2022-08-05T00:30:29.038Z,100.00
2022-08-05T00:35:33.613Z,100.00
2022-08-05T00:40:53.256Z,100.00
2022-08-05T00:45:55.310Z,100.00
2022-08-05T00:50:56.935Z,100.00
2022-08-05T00:55:58.493Z,100.00
2022-08-05T01:01:00.101Z,100.00
2022-08-05T01:06:03.762Z,100.00
2022-08-05T01:11:13.602Z,100.00
2022-08-05T01:16:30.620Z,100.00
2022-08-05T01:21:44.442Z,100.00
2022-08-05T01:27:23.917Z,100.00
2022-08-05T01:32:30.326Z,100.00
2022-08-05T01:37:36.553Z,100.00
2022-08-05T01:42:40.986Z,100.00
2022-08-05T01:47:43.931Z,100.00
2022-08-05T01:52:49.692Z,100.00
2022-08-05T01:58:09.771Z,100.00
2022-08-05T02:03:37.608Z,100.00
2022-08-05T02:08:55.036Z,100.00
2022-08-05T02:14:12.437Z,100.00
2022-08-05T02:19:20.219Z,100.00
2022-08-05T02:24:31.225Z,100.00
2022-08-05T02:29:59.233Z,100.00
2022-08-05T02:35:02.169Z,100.00
2022-08-05T02:40:12.919Z,100.00
2022-08-05T02:45:16.322Z,100.00
2022-08-05T02:50:18.962Z,100.00
2022-08-05T02:55:53.912Z,100.00
2022-08-05T03:00:46.141Z,100.00
2022-08-05T03:06:55.961Z,100.00
2022-08-05T03:11:54.979Z,100.00
2022-08-05T03:16:43.492Z,100.00
2022-08-05T03:21:48.929Z,100.00
2022-08-05T03:26:51.304Z,100.00
2022-08-05T03:31:55.551Z,100.00
2022-08-05T03:36:59.063Z,100.00
2022-08-05T03:42:00.642Z,100.00
2022-08-05T03:47:03.636Z,100.00
2022-08-05T03:52:37.775Z,100.00
2022-08-05T03:57:42.295Z,100.00
2022-08-05T04:02:57.672Z,100.00
2022-08-05T04:08:14.745Z,100.00
2022-08-05T04:13:51.123Z,100.00
2022-08-05T04:18:54.477Z,100.00
2022-08-05T04:24:06.211Z,100.00
2022-08-05T04:29:08.673Z,100.00
2022-08-05T04:34:19.274Z,100.00
2022-08-05T04:39:35.215Z,100.00
2022-08-05T04:44:37.507Z,100.00
2022-08-05T04:50:01.782Z,100.00
2022-08-05T04:55:05.311Z,100.00
2022-08-05T05:00:16.866Z,100.00
2022-08-05T05:05:28.167Z,100.00
2022-08-05T05:10:33.256Z,100.00
2022-08-05T05:15:56.481Z,100.00
2022-08-05T05:20:56.858Z,100.00
2022-08-05T05:26:00.187Z,100.00
2022-08-05T05:31:02.363Z,100.00
2022-08-05T05:36:07.850Z,100.00
2022-08-05T05:41:12.197Z,100.00
2022-08-05T05:46:18.909Z,100.00
2022-08-05T05:51:25.519Z,100.00
2022-08-05T05:56:32.271Z,100.00
2022-08-05T06:01:38.957Z,100.00
2022-08-05T06:06:47.570Z,100.00
2022-08-05T06:12:01.054Z,100.00
2022-08-05T06:17:22.271Z,100.00
2022-08-05T06:22:30.455Z,100.00
2022-08-05T06:28:12.790Z,100.00
2022-08-05T06:32:57.492Z,100.00
2022-08-05T06:38:03.054Z,100.00
2022-08-05T06:43:57.478Z,100.00
2022-08-05T06:48:55.494Z,100.00
2022-08-05T06:54:02.627Z,100.00
2022-08-05T06:59:09.474Z,100.00
2022-08-05T07:04:13.997Z,100.00
2022-08-05T07:09:15.789Z,100.00
2022-08-05T07:14:37.178Z,100.00
2022-08-05T07:25:23.450Z,100.00
2022-08-05T07:30:30.244Z,100.00
2022-08-05T07:36:02.939Z,100.00
2022-08-05T07:41:04.418Z,100.00
2022-08-05T07:46:24.304Z,100.00
2022-08-05T07:51:36.821Z,100.00
2022-08-05T07:57:02.422Z,100.00
2022-08-05T08:02:04.061Z,100.00
2022-08-05T08:07:07.338Z,97.21
2022-08-05T08:12:19.056Z,97.42
2022-08-05T08:17:32.253Z,96.97
2022-08-05T08:22:34.122Z,97.97
2022-08-05T08:27:44.858Z,94.85
2022-08-05T08:32:49.284Z,94.67
2022-08-05T08:37:53.608Z,92.45
2022-08-05T08:45:16.839Z,91.56
2022-08-05T08:48:41.599Z,91.90
2022-08-05T08:53:45.153Z,90.58
2022-08-05T08:58:48.521Z,90.94
2022-08-05T09:03:55.402Z,90.46
2022-08-05T09:09:01.114Z,88.38
2022-08-05T09:14:54.111Z,86.67
2022-08-05T09:19:28.002Z,87.85
2022-08-05T09:24:38.036Z,86.93
2022-08-05T09:29:48.051Z,87.07
2022-08-05T09:34:59.900Z,86.26
2022-08-05T09:40:04.672Z,84.08
2022-08-05T09:46:04.982Z,83.41
2022-08-05T09:50:44.820Z,85.32
2022-08-05T09:55:56.562Z,86.17
2022-08-05T10:01:14.678Z,83.15
2022-08-05T10:06:19.518Z,81.55
2022-08-05T10:11:22.906Z,81.73
2022-08-05T10:16:38.050Z,82.06
2022-08-05T10:21:53.985Z,81.70
2022-08-05T10:27:00.647Z,82.97
2022-08-05T10:32:53.400Z,81.63
2022-08-05T10:37:26.731Z,82.94
2022-08-05T10:42:47.734Z,82.45
2022-08-05T10:48:27.630Z,85.73
2022-08-05T10:53:49.986Z,87.05
2022-08-05T10:58:54.682Z,87.68
2022-08-05T11:04:03.247Z,90.34
2022-08-05T11:09:16.399Z,91.78
2022-08-05T11:14:57.835Z,90.12
2022-08-05T11:20:17.072Z,86.35
2022-08-05T11:26:05.242Z,85.84
2022-08-05T11:30:58.558Z,83.95
2022-08-05T11:36:08.686Z,86.42
2022-08-05T11:41:54.420Z,85.94
2022-08-05T11:46:58.682Z,84.90
2022-08-05T11:52:11.129Z,81.59
2022-08-05T11:57:25.883Z,81.96
2022-08-05T12:02:32.984Z,84.65
2022-08-05T12:08:08.620Z,81.90
2022-08-05T12:13:15.839Z,83.04
2022-08-05T12:18:33.061Z,82.56
2022-08-05T12:23:35.050Z,80.51
2022-08-05T12:28:44.820Z,80.78
2022-08-05T12:33:49.091Z,81.71
2022-08-05T12:38:51.332Z,80.93
2022-08-05T12:43:57.583Z,78.83
2022-08-05T12:49:12.934Z,80.59
2022-08-05T12:54:31.843Z,77.74
2022-08-05T13:00:09.075Z,77.18
2022-08-05T13:05:07.069Z,71.97
2022-08-05T13:10:19.940Z,68.11
2022-08-05T13:15:36.111Z,68.15
2022-08-05T13:20:44.118Z,63.55
2022-08-05T13:25:58.943Z,62.39
2022-08-05T13:31:03.322Z,60.52
2022-08-05T13:36:14.347Z,62.81
2022-08-05T13:41:16.599Z,64.24
2022-08-05T13:46:35.796Z,64.61
2022-08-05T13:51:46.578Z,62.79
2022-08-05T13:56:51.462Z,63.65
2022-08-05T14:02:00.024Z,62.63
2022-08-05T14:07:12.041Z,65.40
2022-08-05T14:12:32.264Z,68.31
2022-08-05T14:17:34.951Z,68.42
2022-08-05T14:22:37.120Z,69.94
2022-08-05T14:27:38.705Z,71.65
2022-08-05T14:32:49.133Z,74.15
2022-08-05T14:37:55.441Z,76.63
2022-08-05T14:42:57.561Z,80.80
2022-08-05T14:48:05.427Z,82.83
2022-08-05T14:53:08.072Z,87.52
2022-08-05T14:58:13.919Z,91.10
2022-08-05T15:03:15.847Z,90.87
2022-08-05T15:08:58.341Z,94.97
2022-08-05T15:13:46.069Z,96.03
2022-08-05T15:18:49.388Z,95.79
2022-08-05T15:23:50.983Z,92.40
2022-08-05T15:28:53.088Z,95.87
2022-08-05T15:34:05.722Z,95.34
2022-08-05T15:40:58.491Z,95.70
2022-08-05T15:44:41.499Z,91.84
2022-08-05T15:49:55.173Z,87.89
2022-08-05T15:55:00.821Z,86.47
2022-08-05T16:00:08.723Z,82.49
2022-08-05T16:05:11.394Z,83.11
2022-08-05T16:10:13.173Z,83.74
2022-08-05T16:15:18.566Z,84.77
2022-08-05T16:20:20.636Z,81.97
2022-08-05T16:25:22.278Z,81.18
2022-08-05T16:30:36.101Z,82.19
2022-08-05T16:35:42.276Z,80.93
2022-08-05T16:40:52.164Z,81.86
2022-08-05T16:46:07.464Z,86.28
2022-08-05T16:51:20.700Z,85.45
2022-08-05T16:56:24.310Z,82.32
2022-08-05T17:01:26.089Z,81.84
2022-08-05T17:06:28.826Z,79.37
2022-08-05T17:11:31.209Z,80.74
2022-08-05T17:16:48.545Z,82.59
2022-08-05T17:21:55.541Z,83.31
2022-08-05T17:26:58.524Z,85.66
2022-08-05T17:32:00.177Z,84.82
2022-08-05T17:37:02.726Z,87.52
2022-08-05T17:42:28.553Z,89.43
2022-08-05T17:47:28.627Z,88.41
2022-08-05T17:52:33.555Z,89.84
2022-08-05T17:57:35.068Z,91.05
2022-08-05T18:02:39.456Z,91.02
2022-08-05T18:07:42.397Z,90.52
2022-08-05T18:12:44.178Z,90.62
2022-08-05T18:17:58.812Z,91.69
2022-08-05T18:23:09.210Z,91.26
2022-08-05T18:28:16.247Z,91.41
2022-08-05T18:33:22.550Z,93.50
2022-08-05T18:38:25.985Z,92.07
2022-08-05T18:43:31.632Z,94.34
2022-08-05T18:48:41.801Z,95.50
2022-08-05T18:53:50.197Z,97.41
2022-08-05T18:58:54.705Z,98.30
2022-08-05T19:03:56.739Z,99.58
2022-08-05T19:08:58.351Z,100.00
2022-08-05T19:14:19.980Z,100.00
2022-08-05T19:19:24.865Z,100.00
2022-08-05T19:24:34.527Z,100.00
2022-08-05T19:29:37.165Z,100.00
2022-08-05T19:34:40.628Z,100.00
2022-08-05T19:39:45.501Z,100.00
2022-08-05T19:44:53.836Z,100.00
2022-08-05T19:50:00.791Z,100.00
2022-08-05T19:55:07.553Z,100.00
2022-08-05T20:00:24.327Z,100.00
2022-08-05T20:05:26.530Z,100.00
2022-08-05T20:10:45.095Z,100.00
2022-08-05T20:15:57.641Z,100.00
2022-08-05T20:20:59.972Z,100.00
2022-08-05T20:26:02.726Z,100.00
2022-08-05T20:31:04.669Z,100.00
2022-08-05T20:36:06.658Z,100.00
2022-08-05T20:41:11.721Z,100.00
2022-08-05T20:46:25.617Z,100.00
2022-08-05T20:51:27.944Z,100.00
2022-08-05T20:56:34.092Z,100.00
2022-08-05T21:01:37.563Z,100.00
2022-08-05T21:06:45.337Z,100.00
2022-08-05T21:12:10.241Z,100.00
2022-08-05T21:17:09.545Z,100.00
2022-08-05T21:22:11.094Z,100.00
2022-08-05T21:27:13.436Z,100.00
2022-08-05T21:32:19.772Z,100.00
2022-08-05T21:37:21.801Z,100.00
2022-08-05T21:42:41.473Z,100.00
2022-08-05T21:47:56.924Z,100.00
2022-08-05T21:53:08.482Z,100.00
2022-08-05T21:58:19.297Z,100.00
2022-08-05T22:03:53.243Z,100.00
2022-08-05T22:08:42.990Z,100.00
2022-08-05T22:14:05.829Z,100.00
2022-08-05T22:19:15.941Z,100.00
2022-08-05T22:24:52.230Z,100.00
2022-08-05T22:29:54.402Z,100.00
2022-08-05T22:34:55.925Z,100.00
2022-08-05T22:39:57.532Z,100.00
2022-08-05T22:44:59.761Z,100.00
2022-08-05T22:50:20.155Z,100.00
2022-08-05T22:55:24.081Z,100.00
2022-08-05T23:00:28.254Z,100.00
2022-08-05T23:05:36.156Z,100.00
2022-08-05T23:10:38.313Z,100.00
2022-08-05T23:15:40.619Z,100.00
2022-08-05T23:20:43.046Z,100.00
2022-08-05T23:25:51.863Z,100.00
2022-08-05T23:30:56.016Z,100.00
2022-08-05T23:36:16.295Z,100.00
2022-08-05T23:41:17.951Z,100.00
2022-08-05T23:46:21.995Z,100.00
2022-08-05T23:51:23.827Z,100.00
2022-08-05T23:56:27.277Z,100.00
